Time;durP1;ratioP1;P1;durP2;ratioP2;P2;SDS_P1;SDS_P2;PMS_P1;PMS_P2;Temp;Humidity;BMP_temperature;BMP_pressure;BME280_temperature;BME280_humidity;BME280_pressure;Samples;Min_cycle;Max_cycle;Signal;HPM_P1;HPM_P2
2022/02/18 00:02:11;;;;;;;2.25;1.95;;;4.80;99.90;;;;;;5029234;28;20042;-80
2022/02/18 00:04:37;;;;;;;4.70;1.55;;;4.90;99.90;;;;;;5029622;28;20057;-80
2022/02/18 00:07:03;;;;;;;;;;;4.80;99.90;;;;;;5013062;28;20045;-80
2022/02/18 00:09:29;;;;;;;3.10;1.02;;;4.80;99.90;;;;;;5038887;28;20314;-80
2022/02/18 00:11:55;;;;;;;1.40;1.30;;;4.90;99.90;;;;;;5029278;28;20049;-80
2022/02/18 00:14:21;;;;;;;0.70;0.70;;;4.80;99.90;;;;;;5044513;28;20148;-80
2022/02/18 00:16:47;;;;;;;4.10;1.48;;;4.80;99.90;;;;;;5034393;28;20057;-80
2022/02/18 00:19:12;;;;;;;2.33;0.90;;;4.80;99.90;;;;;;5037975;28;20102;-80
2022/02/18 00:21:38;;;;;;;2.97;1.65;;;4.80;99.90;;;;;;5028262;28;20413;-80
2022/02/18 00:24:05;;;;;;;1.70;1.10;;;4.80;99.90;;;;;;5034746;28;20080;-81
2022/02/18 00:26:31;;;;;;;4.15;2.05;;;4.70;99.90;;;;;;5029622;28;20137;-80
2022/02/18 00:28:56;;;;;;;5.85;0.95;;;4.70;99.90;;;;;;5036700;28;20120;-80
2022/02/18 00:31:22;;;;;;;2.35;1.50;;;4.70;99.90;;;;;;5030691;28;20064;-80
2022/02/18 00:33:48;;;;;;;2.83;1.02;;;4.70;99.90;;;;;;5037642;28;20076;-80
2022/02/18 00:36:13;;;;;;;1.15;0.95;;;4.60;99.90;;;;;;4995790;28;20052;-80
2022/02/18 00:38:41;;;;;;;4.00;0.85;;;4.70;99.90;;;;;;5040941;28;20128;-80
2022/02/18 00:41:08;;;;;;;0.82;0.77;;;4.80;99.90;;;;;;5030737;28;20136;-80
2022/02/18 00:43:35;;;;;;;1.00;1.00;;;4.70;99.90;;;;;;5035627;28;20052;-80
2022/02/18 00:46:00;;;;;;;;;;;4.70;99.90;;;;;;5043937;28;20091;-80
2022/02/18 00:48:26;;;;;;;12.75;2.38;;;4.60;99.90;;;;;;5033876;28;20335;-80
2022/02/18 00:50:51;;;;;;;5.53;1.65;;;4.60;99.90;;;;;;5037321;28;20133;-80
2022/02/18 00:53:18;;;;;;;3.30;1.98;;;4.60;99.90;;;;;;5018869;28;20033;-80
2022/02/18 00:55:44;;;;;;;0.80;0.80;;;4.60;99.90;;;;;;5042824;28;20399;-80
2022/02/18 00:58:10;;;;;;;1.95;1.05;;;4.70;99.90;;;;;;5037548;28;20048;-80
2022/02/18 01:00:36;;;;;;;1.20;1.10;;;4.60;99.90;;;;;;5037137;28;20597;-81
2022/02/18 01:03:02;;;;;;;3.53;1.17;;;4.60;99.90;;;;;;5008329;28;20042;-80
2022/02/18 01:05:27;;;;;;;1.75;0.98;;;4.60;99.90;;;;;;5035754;28;20390;-80
2022/02/18 01:07:53;;;;;;;2.25;1.00;;;4.60;99.90;;;;;;5034133;28;20029;-79
2022/02/18 01:10:19;;;;;;;5.18;2.63;;;4.60;99.90;;;;;;5017554;28;20176;-79
2022/02/18 01:12:45;;;;;;;1.15;1.05;;;4.40;99.90;;;;;;5015313;28;20042;-79
2022/02/18 01:15:12;;;;;;;1.48;1.35;;;4.40;99.90;;;;;;5017922;28;20175;-79
2022/02/18 01:17:38;;;;;;;2.40;1.42;;;4.40;99.90;;;;;;5020429;28;20048;-79
2022/02/18 01:20:05;;;;;;;2.63;2.08;;;4.40;99.90;;;;;;5037586;28;20065;-79
2022/02/18 01:22:31;;;;;;;3.58;1.80;;;4.30;99.90;;;;;;5039401;28;20485;-79
2022/02/18 01:24:57;;;;;;;1.38;1.02;;;4.30;99.90;;;;;;5030817;28;20069;-79
2022/02/18 01:27:22;;;;;;;1.25;1.10;;;4.20;99.90;;;;;;5039892;28;20072;-79
2022/02/18 01:29:48;;;;;;;1.48;1.38;;;4.20;99.90;;;;;;5020674;28;20045;-80
2022/02/18 01:32:14;;;;;;;4.72;1.13;;;4.20;99.90;;;;;;5040472;28;20052;-79
2022/02/18 01:34:40;;;;;;;4.80;2.22;;;4.20;99.90;;;;;;5036498;28;20069;-79
2022/02/18 01:37:07;;;;;;;2.80;1.45;;;4.10;99.90;;;;;;5044141;28;20052;-79
2022/02/18 01:39:33;;;;;;;4.95;2.38;;;4.30;99.90;;;;;;5029523;28;20041;-79
2022/02/18 01:41:59;;;;;;;5.07;1.38;;;4.10;99.90;;;;;;5045971;28;20370;-79
2022/02/18 01:44:39;;;;;;;2.92;1.60;;;4.10;99.90;;;;;;5044781;28;20249;-79
2022/02/18 01:47:06;;;;;;;0.80;0.80;;;4.10;99.90;;;;;;5032550;28;20049;-79
2022/02/18 01:49:32;;;;;;;1.35;1.17;;;4.00;99.90;;;;;;5039518;28;20050;-79
2022/02/18 01:51:59;;;;;;;3.92;1.15;;;3.90;99.90;;;;;;5033714;28;20052;-80
2022/02/18 01:54:24;;;;;;;3.25;1.35;;;3.90;99.90;;;;;;5023248;28;20131;-79
2022/02/18 01:56:50;;;;;;;2.15;1.42;;;3.90;99.90;;;;;;5034455;28;20076;-79
2022/02/18 01:59:16;;;;;;;7.60;2.28;;;3.90;99.90;;;;;;5034906;28;20092;-79
2022/02/18 02:01:42;;;;;;;1.20;1.10;;;3.90;99.90;;;;;;5030542;28;20052;-79
2022/02/18 02:04:07;;;;;;;1.45;1.13;;;3.80;99.90;;;;;;5017240;28;20084;-79
2022/02/18 02:06:34;;;;;;;5.82;1.60;;;3.80;99.90;;;;;;5032446;28;20092;-79
2022/02/18 02:09:03;;;;;;;5.18;1.13;;;3.80;99.90;;;;;;5046117;28;20040;-79
2022/02/18 02:11:29;;;;;;;9.80;1.90;;;3.90;99.90;;;;;;5029773;28;20037;-79
2022/02/18 02:13:54;;;;;;;1.33;1.17;;;3.90;99.90;;;;;;5033241;28;20097;-79
2022/02/18 02:16:21;;;;;;;0.98;0.77;;;3.80;99.90;;;;;;5030288;28;20044;-79
2022/02/18 02:18:47;;;;;;;0.73;0.70;;;3.80;99.90;;;;;;5040077;28;20041;-80
2022/02/18 02:21:14;;;;;;;4.63;2.47;;;3.80;99.90;;;;;;5032046;28;20046;-79
2022/02/18 02:23:40;;;;;;;1.23;1.13;;;3.70;99.90;;;;;;5022554;28;20107;-79
2022/02/18 02:26:10;;;;;;;6.65;1.08;;;3.70;99.90;;;;;;5039997;28;20037;-80
2022/02/18 02:28:36;;;;;;;1.48;1.38;;;3.70;99.90;;;;;;5036664;28;20398;-79
2022/02/18 02:31:02;;;;;;;7.22;1.27;;;3.60;99.90;;;;;;5028537;28;20059;-79
2022/02/18 02:33:28;;;;;;;0.70;0.70;;;3.60;99.90;;;;;;5038509;28;20076;-79
2022/02/18 02:35:53;;;;;;;1.67;1.00;;;3.60;99.90;;;;;;5046273;28;20541;-79
2022/02/18 02:38:20;;;;;;;2.25;0.95;;;3.60;99.90;;;;;;5037627;28;20122;-79
2022/02/18 02:40:46;;;;;;;1.20;1.10;;;3.50;99.90;;;;;;5032474;28;20063;-80
2022/02/18 02:43:12;;;;;;;3.70;1.35;;;3.50;99.90;;;;;;5038915;28;20056;-79
2022/02/18 02:45:38;;;;;;;3.70;1.88;;;3.60;99.90;;;;;;5054793;28;20048;-80
2022/02/18 02:48:04;;;;;;;5.57;1.15;;;3.60;99.90;;;;;;5040916;28;20099;-79
2022/02/18 02:50:30;;;;;;;;;;;3.60;99.90;;;;;;5038491;28;20049;-79
2022/02/18 02:52:56;;;;;;;7.13;1.35;;;3.80;99.90;;;;;;5038953;28;19931;-79
2022/02/18 02:55:21;;;;;;;5.07;1.27;;;3.60;99.90;;;;;;5034633;28;20393;-80
2022/02/18 02:57:48;;;;;;;0.90;0.90;;;3.70;99.90;;;;;;5034121;28;20060;-80
2022/02/18 03:00:14;;;;;;;6.22;1.05;;;3.70;99.90;;;;;;5044142;28;20098;-79
2022/02/18 03:02:40;;;;;;;0.82;0.73;;;3.80;99.90;;;;;;5032094;28;20033;-79
2022/02/18 03:05:07;;;;;;;0.80;0.80;;;3.80;99.90;;;;;;5035402;28;20065;-79
2022/02/18 03:07:33;;;;;;;5.28;0.98;;;3.80;99.90;;;;;;5032649;28;20118;-80
2022/02/18 03:09:59;;;;;;;1.58;1.42;;;3.70;99.90;;;;;;5035549;28;20574;-80
2022/02/18 03:12:25;;;;;;;1.23;1.10;;;3.80;99.90;;;;;;5035365;28;20064;-80
2022/02/18 03:14:51;;;;;;;0.70;0.70;;;3.80;99.90;;;;;;5036802;28;20072;-80
2022/02/18 03:17:17;;;;;;;0.80;0.80;;;3.80;99.90;;;;;;5037867;28;20041;-80
2022/02/18 03:19:43;;;;;;;1.85;0.88;;;4.20;99.90;;;;;;5034942;28;20037;-80
2022/02/18 03:22:09;;;;;;;1.35;1.13;;;4.10;99.90;;;;;;5033088;28;20390;-79
2022/02/18 03:24:35;;;;;;;1.70;1.08;;;3.90;99.90;;;;;;5032529;28;20112;-80
2022/02/18 03:27:02;;;;;;;1.45;1.35;;;3.90;99.90;;;;;;5025453;28;20487;-80
2022/02/18 03:29:27;;;;;;;0.93;0.75;;;3.90;99.90;;;;;;5029572;28;20033;-80
2022/02/18 03:31:53;;;;;;;2.92;1.63;;;3.90;99.90;;;;;;5032804;28;20057;-80
2022/02/18 03:34:19;;;;;;;;;;;4.00;99.90;;;;;;5033379;28;20042;-80
2022/02/18 03:36:45;;;;;;;0.70;0.70;;;4.00;99.90;;;;;;5034555;28;19927;-80
2022/02/18 03:39:11;;;;;;;2.72;1.20;;;4.00;99.90;;;;;;4999770;28;20041;-79
2022/02/18 03:41:37;;;;;;;1.17;1.08;;;3.90;99.90;;;;;;5034178;28;20048;-80
2022/02/18 03:44:03;;;;;;;5.57;2.03;;;3.90;99.90;;;;;;5033396;28;20048;-80
2022/02/18 03:46:29;;;;;;;1.75;1.35;;;3.90;99.90;;;;;;5040611;28;20144;-80
2022/02/18 03:48:54;;;;;;;1.13;1.02;;;4.10;99.90;;;;;;5019067;28;20048;-80
2022/02/18 03:51:20;;;;;;;0.80;0.80;;;3.90;99.90;;;;;;5023432;28;20036;-80
2022/02/18 03:53:49;;;;;;;3.65;0.88;;;3.90;99.90;;;;;;5032480;28;20076;-79
2022/02/18 03:56:16;;;;;;;0.70;0.70;;;4.00;99.90;;;;;;5040113;28;20048;-79
2022/02/18 03:58:41;;;;;;;1.60;1.20;;;4.00;99.90;;;;;;5036112;28;20056;-80
2022/02/18 04:01:07;;;;;;;1.13;0.90;;;4.00;99.90;;;;;;5018227;28;20053;-80
2022/02/18 04:03:33;;;;;;;1.45;1.13;;;4.00;99.90;;;;;;5049319;28;20045;-79
2022/02/18 04:05:59;;;;;;;1.10;1.00;;;4.00;99.90;;;;;;5032496;28;20049;-80
2022/02/18 04:08:25;;;;;;;1.38;1.38;;;4.00;99.90;;;;;;5036997;28;20222;-80
2022/02/18 04:10:50;;;;;;;1.02;0.90;;;4.00;99.90;;;;;;5040309;28;20419;-80
2022/02/18 04:13:16;;;;;;;10.30;2.88;;;4.00;99.90;;;;;;5036012;28;20494;-80
2022/02/18 04:15:42;;;;;;;1.25;1.20;;;4.10;99.90;;;;;;5038602;28;20098;-80
2022/02/18 04:18:08;;;;;;;7.18;1.05;;;4.10;99.90;;;;;;5036487;28;20048;-80
2022/02/18 04:20:33;;;;;;;6.60;2.63;;;4.10;99.90;;;;;;5033687;28;20049;-80
2022/02/18 04:22:59;;;;;;;0.85;0.85;;;4.10;99.90;;;;;;5031774;28;20060;-80
2022/02/18 04:25:25;;;;;;;2.00;1.02;;;4.20;99.90;;;;;;5034167;28;20113;-81
2022/02/18 04:27:53;;;;;;;1.45;1.35;;;4.20;99.90;;;;;;5036813;28;20495;-80
2022/02/18 04:30:19;;;;;;;4.07;1.55;;;4.20;99.90;;;;;;5039967;28;20132;-80
2022/02/18 04:32:44;;;;;;;0.70;0.70;;;4.20;99.90;;;;;;5033578;28;20176;-80
2022/02/18 04:35:11;;;;;;;0.98;0.98;;;4.30;99.90;;;;;;5035495;28;20490;-80
2022/02/18 04:37:37;;;;;;;2.75;1.02;;;4.30;99.90;;;;;;5038889;28;20049;-80
2022/02/18 04:40:03;;;;;;;1.00;0.90;;;4.30;99.90;;;;;;5034883;28;20044;-80
2022/02/18 04:42:29;;;;;;;;;;;4.20;99.90;;;;;;5037445;28;20037;-80
2022/02/18 04:44:55;;;;;;;1.23;1.10;;;4.20;99.90;;;;;;5019545;28;19932;-80
2022/02/18 04:47:20;;;;;;;1.95;1.02;;;4.30;99.90;;;;;;5022778;28;20072;-80
2022/02/18 04:49:46;;;;;;;0.50;0.50;;;4.30;99.90;;;;;;5031846;28;20463;-80
2022/02/18 04:52:13;;;;;;;1.75;1.05;;;4.30;99.90;;;;;;5032426;28;20042;-78
2022/02/18 04:54:39;;;;;;;0.90;0.90;;;4.40;99.90;;;;;;5030471;28;20047;-79
2022/02/18 04:57:05;;;;;;;1.75;0.75;;;4.40;99.90;;;;;;5030416;28;20124;-78
2022/02/18 04:59:31;;;;;;;2.63;0.70;;;4.40;99.90;;;;;;5031914;28;20092;-81
2022/02/18 05:01:56;;;;;;;1.92;0.88;;;4.50;99.90;;;;;;5029767;28;20080;-80
2022/02/18 05:04:23;;;;;;;0.80;0.80;;;4.50;99.90;;;;;;5018771;28;20558;-80
2022/02/18 05:06:50;;;;;;;1.13;1.10;;;4.50;99.90;;;;;;5037221;28;20116;-80
2022/02/18 05:09:15;;;;;;;0.70;0.70;;;4.60;99.90;;;;;;5030477;28;20046;-80
2022/02/18 05:11:41;;;;;;;1.55;0.85;;;4.60;99.90;;;;;;5035236;28;20100;-80
2022/02/18 05:14:07;;;;;;;3.22;1.05;;;4.60;99.90;;;;;;5035698;28;20549;-80
2022/02/18 05:16:33;;;;;;;1.05;0.85;;;4.70;99.90;;;;;;5041256;28;20049;-80
2022/02/18 05:18:58;;;;;;;1.42;1.00;;;4.60;99.90;;;;;;5048996;28;20099;-79
2022/02/18 05:21:25;;;;;;;0.60;0.60;;;4.70;99.90;;;;;;5034110;28;20041;-79
2022/02/18 05:23:51;;;;;;;1.00;0.95;;;4.70;99.90;;;;;;5030807;28;20045;-79
2022/02/18 05:26:17;;;;;;;0.80;0.80;;;4.60;99.90;;;;;;5032025;28;20119;-80
2022/02/18 05:28:43;;;;;;;1.00;0.90;;;4.60;99.90;;;;;;5038576;28;20069;-80
2022/02/18 05:31:08;;;;;;;3.20;1.63;;;4.60;99.90;;;;;;5041607;28;20107;-79
2022/02/18 05:33:34;;;;;;;0.77;0.77;;;4.60;99.90;;;;;;5034932;28;20041;-79
2022/02/18 05:36:00;;;;;;;0.77;0.77;;;4.60;99.90;;;;;;5041662;28;20096;-79
2022/02/18 05:38:26;;;;;;;1.65;1.33;;;4.60;99.90;;;;;;5035017;28;20045;-79
2022/02/18 05:40:53;;;;;;;1.15;1.00;;;4.60;99.90;;;;;;5038695;28;20102;-79
2022/02/18 05:43:18;;;;;;;4.82;1.13;;;4.60;99.90;;;;;;5031078;28;20364;-79
2022/02/18 05:45:44;;;;;;;1.45;1.25;;;4.60;99.90;;;;;;5023879;28;20056;-78
2022/02/18 05:48:10;;;;;;;0.90;0.85;;;4.60;99.90;;;;;;5032422;28;20045;-78
2022/02/18 05:50:36;;;;;;;1.60;1.27;;;4.60;99.90;;;;;;5031312;28;20132;-79
2022/02/18 05:53:01;;;;;;;3.17;2.80;;;4.60;99.90;;;;;;5033420;28;20092;-78
2022/02/18 05:55:27;;;;;;;7.18;2.40;;;4.60;99.90;;;;;;5029517;28;20049;-78
2022/02/18 05:57:53;;;;;;;1.92;1.30;;;4.70;99.90;;;;;;5015803;28;20044;-78
2022/02/18 06:00:20;;;;;;;7.28;3.92;;;4.70;99.90;;;;;;5031419;28;20055;-78
2022/02/18 06:02:45;;;;;;;0.95;0.85;;;4.70;99.90;;;;;;5043538;28;20153;-78
2022/02/18 06:05:11;;;;;;;7.78;1.77;;;4.70;99.90;;;;;;5015052;28;20077;-78
2022/02/18 06:07:37;;;;;;;2.28;1.17;;;5.00;99.90;;;;;;5018205;28;20053;-78
2022/02/18 06:10:04;;;;;;;10.23;1.48;;;4.70;99.90;;;;;;5015021;28;20041;-79
2022/02/18 06:12:29;;;;;;;1.73;1.23;;;4.80;99.90;;;;;;5029763;28;20414;-78
2022/02/18 06:14:55;;;;;;;6.25;1.40;;;4.70;99.90;;;;;;5008169;28;20045;-78
2022/02/18 06:17:21;;;;;;;1.35;1.25;;;4.70;99.90;;;;;;5033272;28;20045;-78
2022/02/18 06:19:47;;;;;;;2.25;1.33;;;4.70;99.90;;;;;;5014550;28;20088;-78
2022/02/18 06:22:14;;;;;;;8.57;1.45;;;4.70;99.90;;;;;;5036399;28;20440;-78
2022/02/18 06:24:40;;;;;;;2.58;1.48;;;4.70;99.90;;;;;;5029340;28;20155;-79
2022/02/18 06:27:06;;;;;;;6.45;1.30;;;4.70;99.90;;;;;;5031502;28;20587;-78
2022/02/18 06:29:32;;;;;;;3.45;1.27;;;4.80;99.90;;;;;;5031035;28;20044;-78
2022/02/18 06:31:57;;;;;;;0.88;0.85;;;4.70;99.90;;;;;;5016227;28;20077;-78
2022/02/18 06:34:26;;;;;;;1.88;1.02;;;4.60;99.90;;;;;;5030355;28;20069;-78
2022/02/18 06:36:52;;;;;;;4.70;1.38;;;4.60;99.90;;;;;;5040652;28;20398;-78
2022/02/18 06:39:23;;;;;;;2.80;1.65;;;4.60;99.90;;;;;;5031891;28;20048;-78
2022/02/18 06:41:49;;;;;;;1.25;1.15;;;4.60;99.90;;;;;;5036999;28;20045;-78
2022/02/18 06:44:15;;;;;;;1.48;1.23;;;4.50;99.90;;;;;;5015975;28;20060;-79
2022/02/18 06:46:41;;;;;;;;;;;4.50;99.90;;;;;;5042152;28;20045;-79
2022/02/18 06:49:07;;;;;;;1.85;1.63;;;4.50;99.90;;;;;;5033417;28;19917;-79
2022/02/18 06:51:33;;;;;;;2.28;2.08;;;4.50;99.90;;;;;;5029548;28;20037;-79
2022/02/18 06:53:59;;;;;;;2.67;1.35;;;4.50;99.90;;;;;;5034947;28;20077;-79
2022/02/18 06:56:25;;;;;;;1.77;1.15;;;4.50;99.90;;;;;;5042492;28;20084;-79
2022/02/18 06:58:52;;;;;;;1.75;1.17;;;4.50;99.90;;;;;;5037928;28;20045;-78
2022/02/18 07:01:18;;;;;;;1.45;1.17;;;4.60;99.90;;;;;;5041372;28;20091;-78
2022/02/18 07:03:44;;;;;;;2.83;0.90;;;4.40;99.90;;;;;;5028778;28;20129;-79
2022/02/18 07:06:10;;;;;;;7.53;1.80;;;4.50;99.90;;;;;;5039530;28;20383;-79
2022/02/18 07:08:36;;;;;;;3.72;1.58;;;4.70;99.90;;;;;;5035809;28;20064;-79
2022/02/18 07:11:01;;;;;;;5.32;3.22;;;4.50;99.90;;;;;;5034266;28;20044;-79
2022/02/18 07:13:28;;;;;;;1.88;1.02;;;4.50;99.90;;;;;;5048458;28;20044;-80
2022/02/18 07:15:55;;;;;;;1.48;1.25;;;4.60;99.90;;;;;;5034311;28;20355;-79
2022/02/18 07:18:21;;;;;;;2.35;1.50;;;4.60;99.90;;;;;;5031051;28;20053;-79
2022/02/18 07:20:47;;;;;;;4.88;1.30;;;4.60;99.90;;;;;;5035286;28;20128;-79
2022/02/18 07:23:13;;;;;;;2.05;1.33;;;4.60;99.90;;;;;;5033345;28;20137;-79
2022/02/18 07:25:38;;;;;;;5.32;1.67;;;4.60;99.90;;;;;;5035262;28;20072;-80
2022/02/18 07:28:04;;;;;;;6.63;2.35;;;4.60;99.90;;;;;;5030251;28;20038;-79
2022/02/18 07:30:30;;;;;;;2.13;0.95;;;4.60;99.90;;;;;;5031012;28;20037;-79
2022/02/18 07:32:56;;;;;;;6.15;2.28;;;4.70;99.90;;;;;;5032297;28;20203;-78
2022/02/18 07:35:23;;;;;;;5.32;2.78;;;4.70;99.90;;;;;;5004998;28;20053;-78
2022/02/18 07:37:49;;;;;;;4.03;1.95;;;4.70;99.90;;;;;;5013892;28;20110;-78
2022/02/18 07:40:17;;;;;;;2.72;1.83;;;4.70;99.90;;;;;;5012531;28;20156;-78
2022/02/18 07:42:43;;;;;;;2.65;1.30;;;4.80;99.90;;;;;;5030854;28;20062;-79
2022/02/18 07:45:12;;;;;;;2.03;1.40;;;4.80;99.90;;;;;;5037833;28;20051;-78
2022/02/18 07:47:39;;;;;;;2.67;2.08;;;4.80;99.90;;;;;;5030442;28;20534;-78
2022/02/18 07:50:06;;;;;;;8.73;1.88;;;4.90;99.90;;;;;;5032195;28;20139;-78
2022/02/18 07:52:32;;;;;;;7.45;2.15;;;4.90;99.90;;;;;;5016982;28;20041;-80
2022/02/18 07:54:58;;;;;;;4.97;2.55;;;4.90;99.90;;;;;;5038638;28;20128;-79
2022/02/18 07:57:25;;;;;;;4.20;2.38;;;5.00;99.90;;;;;;5033143;28;20432;-80
2022/02/18 07:59:51;;;;;;;6.82;1.50;;;5.00;99.90;;;;;;5030931;28;20115;-80
2022/02/18 08:02:17;;;;;;;4.68;2.67;;;5.00;99.90;;;;;;5012985;28;20045;-79
2022/02/18 08:04:43;;;;;;;5.68;3.22;;;5.00;99.90;;;;;;5018839;28;20052;-81
2022/02/18 08:07:09;;;;;;;3.55;2.55;;;5.10;99.90;;;;;;5030725;28;20111;-78
2022/02/18 08:09:34;;;;;;;13.80;3.25;;;5.10;99.90;;;;;;5036741;28;20076;-80
2022/02/18 08:12:01;;;;;;;11.73;2.35;;;5.20;99.90;;;;;;5028663;28;20479;-81
2022/02/18 08:14:27;;;;;;;7.95;3.63;;;5.20;99.90;;;;;;5042371;28;20051;-79
2022/02/18 08:16:52;;;;;;;3.05;1.98;;;5.20;99.90;;;;;;5046820;28;20045;-80
2022/02/18 08:19:20;;;;;;;9.85;2.53;;;5.20;99.90;;;;;;5024895;28;20047;-79
2022/02/18 08:21:51;;;;;;;3.58;2.05;;;5.30;99.90;;;;;;5013638;28;20129;-80
2022/02/18 08:24:18;;;;;;;4.10;2.60;;;5.30;99.90;;;;;;5029538;28;20509;-80
2022/02/18 08:26:46;;;;;;;8.35;3.92;;;5.30;99.90;;;;;;5030478;28;20045;-80
2022/02/18 08:29:12;;;;;;;5.45;2.33;;;5.40;99.90;;;;;;5026556;28;20127;-80
2022/02/18 08:31:38;;;;;;;;;;;5.40;99.90;;;;;;5035044;28;20049;-79
2022/02/18 08:34:03;;;;;;;7.22;3.05;;;5.40;99.90;;;;;;5031148;28;19921;-79
2022/02/18 08:36:29;;;;;;;7.78;3.08;;;5.40;99.90;;;;;;5030709;28;20040;-79
2022/02/18 08:38:57;;;;;;;5.88;1.95;;;5.40;99.90;;;;;;5021964;28;20057;-77
2022/02/18 08:41:23;;;;;;;6.40;3.08;;;5.40;99.90;;;;;;5034695;28;20041;-80
2022/02/18 08:43:49;;;;;;;5.68;2.88;;;5.40;99.90;;;;;;5011173;28;20045;-80
2022/02/18 08:46:14;;;;;;;6.60;2.95;;;5.40;99.90;;;;;;5027255;28;20060;-80
2022/02/18 08:48:40;;;;;;;3.55;1.73;;;5.50;99.90;;;;;;5029020;28;20124;-80
2022/02/18 08:51:06;;;;;;;3.00;1.77;;;5.50;99.90;;;;;;5010314;28;20549;-79
2022/02/18 08:53:31;;;;;;;10.85;2.78;;;5.50;99.90;;;;;;5011126;28;20073;-79
2022/02/18 08:55:58;;;;;;;7.00;1.98;;;5.50;99.90;;;;;;5044886;28;20390;-80
2022/02/18 08:58:26;;;;;;;7.70;2.30;;;5.60;99.90;;;;;;5027059;28;20053;-79
2022/02/18 09:00:52;;;;;;;3.05;1.58;;;5.60;99.90;;;;;;5026456;28;20365;-78
2022/02/18 09:03:18;;;;;;;7.43;2.13;;;5.70;99.90;;;;;;5027414;28;20047;-79
2022/02/18 09:05:44;;;;;;;2.22;1.08;;;5.80;99.90;;;;;;5026541;28;20049;-79
2022/02/18 09:08:09;;;;;;;4.07;2.78;;;5.80;99.90;;;;;;5025680;28;20467;-78
2022/02/18 09:10:35;;;;;;;3.40;1.95;;;5.90;99.90;;;;;;5027454;28;20049;-80
2022/02/18 09:13:01;;;;;;;2.38;1.95;;;5.90;99.90;;;;;;5010278;28;20451;-79
2022/02/18 09:15:27;;;;;;;1.58;1.30;;;5.90;99.90;;;;;;5011245;28;20041;-78
2022/02/18 09:17:52;;;;;;;5.55;1.73;;;6.00;99.90;;;;;;5028829;28;20048;-79
2022/02/18 09:20:18;;;;;;;2.88;1.73;;;6.00;99.90;;;;;;4994735;28;20057;-78
2022/02/18 09:22:44;;;;;;;2.65;1.83;;;6.10;99.90;;;;;;5036867;28;20049;-78
2022/02/18 09:25:10;;;;;;;3.03;2.30;;;6.10;99.90;;;;;;5029015;28;20510;-79
2022/02/18 09:27:35;;;;;;;4.05;2.15;;;6.10;99.90;;;;;;5015229;28;20041;-78
2022/02/18 09:30:03;;;;;;;4.50;1.50;;;6.10;99.90;;;;;;5033425;28;20037;-78
2022/02/18 09:32:29;;;;;;;2.10;1.67;;;6.20;99.90;;;;;;5014684;28;20096;-79
2022/02/18 09:34:56;;;;;;;3.20;2.03;;;6.20;99.90;;;;;;5014996;28;20499;-79
2022/02/18 09:37:22;;;;;;;2.67;1.27;;;6.20;99.90;;;;;;5016213;28;20124;-79
2022/02/18 09:39:48;;;;;;;2.38;1.92;;;6.20;99.90;;;;;;5012348;28;20408;-78
2022/02/18 09:42:14;;;;;;;4.07;1.92;;;6.30;99.90;;;;;;5039126;28;20052;-79
2022/02/18 09:44:41;;;;;;;;;;;6.30;99.90;;;;;;5033555;28;20045;-79
2022/02/18 09:47:08;;;;;;;2.22;1.85;;;6.30;99.90;;;;;;5031430;28;19967;-77
2022/02/18 09:49:34;;;;;;;2.55;1.58;;;6.40;99.90;;;;;;5025858;28;20128;-79
2022/02/18 09:52:01;;;;;;;3.22;1.80;;;6.40;99.90;;;;;;5028239;28;20120;-77
2022/02/18 09:54:27;;;;;;;1.63;1.10;;;6.50;99.90;;;;;;5040060;28;20045;-77
2022/02/18 09:56:53;;;;;;;1.67;1.33;;;6.50;99.90;;;;;;5037819;28;20132;-78
2022/02/18 09:59:19;;;;;;;1.65;1.33;;;6.60;99.90;;;;;;5031770;28;20148;-77
2022/02/18 10:01:46;;;;;;;2.00;1.58;;;6.80;99.90;;;;;;5038238;28;20120;-77
2022/02/18 10:04:12;;;;;;;2.05;1.67;;;6.80;99.90;;;;;;5036706;28;20045;-78
2022/02/18 10:06:38;;;;;;;2.88;1.65;;;6.80;99.90;;;;;;5042233;28;20705;-78
2022/02/18 10:09:04;;;;;;;;;;;6.80;99.90;;;;;;5035812;28;20103;-78
2022/02/18 10:11:52;;;;;;;2.05;1.40;;;6.90;99.90;;;;;;5051014;28;19921;-79
2022/02/18 10:14:18;;;;;;;2.35;1.60;;;6.90;99.90;;;;;;5027827;28;20388;-79
2022/02/18 10:16:44;;;;;;;3.53;2.03;;;7.00;99.90;;;;;;5035102;28;20079;-78
2022/02/18 10:19:10;;;;;;;1.73;1.40;;;7.00;99.90;;;;;;5011980;28;20151;-78
2022/02/18 10:21:38;;;;;;;8.13;2.00;;;7.20;99.90;;;;;;4998842;28;20041;-78
2022/02/18 10:24:08;;;;;;;3.22;1.67;;;7.20;99.90;;;;;;5009829;28;20116;-77
2022/02/18 10:26:38;;;;;;;2.65;1.50;;;7.30;99.90;;;;;;5010420;28;20108;-77
2022/02/18 10:29:06;;;;;;;2.63;1.50;;;7.40;99.90;;;;;;5032014;28;20041;-77
2022/02/18 10:31:37;;;;;;;3.75;1.42;;;7.40;99.90;;;;;;5033057;28;20060;-77
2022/02/18 10:34:05;;;;;;;1.73;1.27;;;7.60;99.90;;;;;;5030920;28;20049;-77
2022/02/18 10:36:36;;;;;;;4.55;2.50;;;7.60;99.90;;;;;;5027352;28;20513;-78
2022/02/18 10:39:29;;;;;;;1.73;1.33;;;7.70;99.90;;;;;;5038835;28;20063;-78
2022/02/18 10:41:57;;;;;;;1.92;1.70;;;7.80;99.90;;;;;;5033352;28;20086;-78
2022/02/18 10:44:42;;;;;;;2.67;1.90;;;7.90;99.90;;;;;;5029797;28;20171;-77
2022/02/18 10:47:21;;;;;;;2.28;1.55;;;8.00;99.90;;;;;;5037053;28;20064;-77
2022/02/18 10:49:47;;;;;;;1.15;1.10;;;8.10;99.90;;;;;;5036471;28;20095;-76
2022/02/18 10:52:18;;;;;;;2.63;1.45;;;8.20;99.90;;;;;;5032591;28;20080;-77
2022/02/18 10:54:50;;;;;;;8.40;2.28;;;8.30;99.90;;;;;;5020273;28;20482;-76
2022/02/18 10:57:34;;;;;;;5.95;3.25;;;8.40;99.90;;;;;;5035644;28;20064;-78
2022/02/18 11:00:13;;;;;;;4.38;1.67;;;8.50;99.90;;;;;;5028059;28;20045;-76
2022/02/18 11:02:55;;;;;;;4.25;2.20;;;8.60;99.90;;;;;;5032882;28;20101;-78
2022/02/18 11:05:26;;;;;;;2.63;1.50;;;8.70;99.90;;;;;;5026736;28;20041;-77
2022/02/18 11:07:52;;;;;;;2.42;1.70;;;8.80;99.90;;;;;;5033007;28;20029;-78
2022/02/18 11:10:32;;;;;;;2.25;1.25;;;8.90;99.90;;;;;;5052916;28;20041;-77
2022/02/18 11:12:58;;;;;;;6.05;1.88;;;8.90;99.90;;;;;;5046905;28;20044;-78
2022/02/18 11:15:25;;;;;;;4.85;1.60;;;9.00;99.90;;;;;;5015972;28;20038;-77
2022/02/18 11:17:52;;;;;;;3.72;1.05;;;9.00;99.90;;;;;;5015431;28;20037;-76
2022/02/18 11:20:18;;;;;;;2.60;1.85;;;9.10;99.90;;;;;;5035694;28;20042;-75
2022/02/18 11:22:45;;;;;;;3.00;1.98;;;9.10;99.90;;;;;;5037822;28;20042;-77
2022/02/18 11:25:11;;;;;;;3.33;1.55;;;9.10;99.90;;;;;;5030438;28;20041;-76
2022/02/18 11:27:38;;;;;;;1.85;1.50;;;9.10;99.90;;;;;;5032522;28;20107;-77
2022/02/18 11:30:05;;;;;;;2.35;1.45;;;9.10;99.90;;;;;;5049680;28;20475;-77
2022/02/18 11:32:52;;;;;;;2.95;1.42;;;9.10;99.90;;;;;;5016428;28;20050;-77
2022/02/18 11:35:40;;;;;;;7.72;1.55;;;9.20;99.90;;;;;;5026386;28;20108;-77
2022/02/18 11:38:22;;;;;;;2.08;1.30;;;9.20;99.90;;;;;;5034117;28;20038;-77
2022/02/18 11:41:00;;;;;;;2.13;1.67;;;9.20;99.90;;;;;;5030270;28;20087;-76
2022/02/18 11:43:47;;;;;;;2.15;1.50;;;9.30;99.90;;;;;;5033707;28;20474;-77
2022/02/18 11:46:24;;;;;;;2.33;1.30;;;9.30;99.90;;;;;;5016488;28;20495;-76
2022/02/18 11:48:51;;;;;;;2.40;1.40;;;9.30;99.90;;;;;;5030701;28;20120;-76
2022/02/18 11:51:23;;;;;;;3.10;2.20;;;9.40;99.90;;;;;;5016775;28;20045;-77
2022/02/18 11:54:51;;;;;;;2.60;1.35;;;9.40;99.90;;;;;;5033534;28;20095;-85
2022/02/18 11:57:18;;;;;;;2.78;1.65;;;9.50;99.90;;;;;;5034294;28;20053;-81
2022/02/18 11:59:59;;;;;;;9.55;1.60;;;9.60;99.90;;;;;;5050684;28;20033;-83
2022/02/18 12:02:42;;;;;;;5.35;2.08;;;9.70;99.90;;;;;;5041196;28;20151;-82
2022/02/18 12:05:10;;;;;;;3.80;1.90;;;9.80;99.90;;;;;;5019097;28;20072;-82
2022/02/18 12:07:38;;;;;;;3.58;2.50;;;9.80;99.90;;;;;;5045271;28;20077;-77
2022/02/18 12:10:07;;;;;;;3.20;1.75;;;9.90;99.90;;;;;;5023673;28;20129;-78
2022/02/18 12:12:36;;;;;;;2.60;1.92;;;9.90;99.90;;;;;;5024378;28;20041;-77
2022/02/18 12:15:20;;;;;;;8.77;1.95;;;9.90;99.90;;;;;;5031334;28;20118;-77
2022/02/18 12:17:52;;;;;;;3.40;1.65;;;9.90;99.90;;;;;;5023881;28;20037;-77
2022/02/18 12:20:27;;;;;;;2.55;1.40;;;10.00;99.90;;;;;;5025237;28;20099;-78
2022/02/18 12:22:53;;;;;;;4.07;1.88;;;10.00;99.90;;;;;;5048583;28;20037;-77
2022/02/18 12:25:27;;;;;;;4.82;1.63;;;10.00;99.90;;;;;;5033369;28;20072;-77
2022/02/18 12:28:16;;;;;;;2.53;1.83;;;10.00;99.90;;;;;;5033021;28;20056;-77
2022/02/18 12:30:45;;;;;;;3.90;2.05;;;10.00;99.90;;;;;;5038632;28;20116;-77
2022/02/18 12:33:11;;;;;;;3.75;1.48;;;10.10;99.90;;;;;;5033683;28;20132;-76
2022/02/18 12:35:37;;;;;;;1.80;1.48;;;10.10;99.90;;;;;;5044126;28;20131;-77
2022/02/18 12:38:05;;;;;;;3.08;1.67;;;10.20;99.90;;;;;;5024290;28;20509;-79
2022/02/18 12:40:35;;;;;;;2.13;1.40;;;10.20;99.90;;;;;;5035134;28;20041;-78
2022/02/18 12:43:08;;;;;;;2.05;1.17;;;10.20;99.90;;;;;;5033876;28;20053;-77
2022/02/18 12:45:45;;;;;;;1.73;1.20;;;10.20;99.90;;;;;;5016385;28;20049;-76
2022/02/18 12:48:11;;;;;;;2.20;1.42;;;10.10;99.90;;;;;;5032344;28;20048;-76
2022/02/18 12:50:45;;;;;;;2.38;1.67;;;10.10;99.90;;;;;;5039571;28;20076;-78
2022/02/18 12:53:17;;;;;;;2.05;1.10;;;10.00;99.90;;;;;;5047795;28;20038;-80
2022/02/18 12:55:42;;;;;;;2.47;1.20;;;10.10;99.90;;;;;;5032095;28;20045;-78
2022/02/18 12:58:14;;;;;;;2.25;1.45;;;10.00;99.90;;;;;;5033914;28;20095;-79
2022/02/18 13:00:40;;;;;;;0.80;0.80;;;9.90;99.90;;;;;;5022391;28;20124;-79